Time;durP1;ratioP1;P1;durP2;ratioP2;P2;SDS_P1;SDS_P2;PMS_P1;PMS_P2;Temp;Humidity;BMP_temperature;BMP_pressure;BME280_temperature;BME280_humidity;BME280_pressure;Samples;Min_cycle;Max_cycle;Signal;HPM_P1;HPM_P2
2021/01/14 00:02:23;;;;;;;1.35;0.80;;;4.90;66.70;;;;;;4979802;28;20035;-73
2021/01/14 00:04:48;;;;;;;1.90;1.08;;;4.90;66.80;;;;;;4973228;28;20038;-73
2021/01/14 00:07:14;;;;;;;1.67;0.82;;;4.90;66.90;;;;;;4976388;28;20395;-73
2021/01/14 00:09:46;;;;;;;1.92;0.85;;;4.80;67.00;;;;;;4976837;28;20050;-73
2021/01/14 00:12:11;;;;;;;1.77;0.50;;;4.90;67.00;;;;;;4978547;28;20034;-73
2021/01/14 00:14:37;;;;;;;1.48;0.70;;;4.90;67.20;;;;;;4970049;28;20369;-73
2021/01/14 00:17:03;;;;;;;2.88;0.60;;;5.00;67.20;;;;;;4960452;28;20034;-73
2021/01/14 00:19:28;;;;;;;2.13;0.70;;;5.00;67.30;;;;;;4967046;28;20029;-73
2021/01/14 00:21:54;;;;;;;1.48;0.45;;;5.00;67.30;;;;;;4961190;28;20056;-73
2021/01/14 00:24:19;;;;;;;1.90;0.68;;;5.00;67.20;;;;;;4963348;28;20117;-73
2021/01/14 00:26:45;;;;;;;3.83;1.10;;;5.00;67.10;;;;;;4965139;28;20082;-73
2021/01/14 00:29:11;;;;;;;2.10;0.65;;;5.10;67.10;;;;;;4965296;28;20027;-76
2021/01/14 00:31:37;;;;;;;2.17;0.57;;;5.10;67.30;;;;;;4967117;28;20038;-74
2021/01/14 00:34:02;;;;;;;4.35;0.70;;;5.20;67.20;;;;;;4975290;28;20030;-74
2021/01/14 00:37:50;;;;;;;1.40;0.60;;;5.20;66.80;;;;;;4959889;28;20125;-74
2021/01/14 00:39:40;;;;;;;8.70;0.75;;;5.20;66.90;;;;;;4982321;28;20500;-74
2021/01/14 00:42:05;;;;;;;1.30;0.60;;;5.30;67.00;;;;;;4984577;28;20048;-74
2021/01/14 00:44:30;;;;;;;1.33;0.50;;;5.30;66.80;;;;;;4965813;28;20113;-74
2021/01/14 00:46:57;;;;;;;2.50;0.40;;;5.40;66.90;;;;;;4964681;28;20036;-73
2021/01/14 00:49:24;;;;;;;1.95;1.05;;;5.40;66.90;;;;;;4966588;28;20076;-74
2021/01/14 00:51:50;;;;;;;1.48;0.55;;;5.40;67.00;;;;;;4964955;28;20031;-74
2021/01/14 00:54:16;;;;;;;1.35;0.60;;;5.40;66.80;;;;;;4982564;28;20058;-74
2021/01/14 00:56:42;;;;;;;1.40;0.40;;;5.50;66.90;;;;;;4966928;28;20049;-73
2021/01/14 00:59:08;;;;;;;1.27;0.50;;;5.40;66.70;;;;;;4969889;28;20034;-74
2021/01/14 01:01:35;;;;;;;2.33;0.55;;;5.50;66.70;;;;;;4956964;28;20034;-74
2021/01/14 01:04:01;;;;;;;2.38;0.50;;;5.50;66.60;;;;;;4967854;28;20035;-74
2021/01/14 01:06:40;;;;;;;2.28;0.60;;;5.50;66.50;;;;;;4963227;28;20056;-74
2021/01/14 01:09:08;;;;;;;1.50;0.45;;;5.50;65.90;;;;;;4968967;28;20096;-73
2021/01/14 01:11:34;;;;;;;1.77;0.60;;;5.50;66.50;;;;;;4962032;28;20374;-74
2021/01/14 01:14:01;;;;;;;2.75;1.00;;;5.50;66.30;;;;;;4966212;28;20074;-74
2021/01/14 01:16:27;;;;;;;2.25;0.50;;;5.60;66.30;;;;;;4962147;28;20121;-74
2021/01/14 01:18:52;;;;;;;2.92;0.50;;;5.50;66.20;;;;;;4964458;28;20102;-74
2021/01/14 01:21:18;;;;;;;2.30;0.60;;;5.50;65.90;;;;;;4963001;28;20043;-74
2021/01/14 01:23:43;;;;;;;0.98;0.40;;;5.50;66.10;;;;;;4967406;28;20034;-74
2021/01/14 01:26:17;;;;;;;1.13;0.55;;;5.50;66.00;;;;;;4971343;28;20063;-74
2021/01/14 01:28:44;;;;;;;1.90;0.60;;;5.50;65.30;;;;;;4969120;28;20655;-74
2021/01/14 01:31:11;;;;;;;1.48;0.60;;;5.50;65.60;;;;;;4966645;28;20043;-74
2021/01/14 01:33:42;;;;;;;1.63;0.60;;;5.50;65.70;;;;;;4960672;28;20066;-74
2021/01/14 01:36:11;;;;;;;1.98;0.70;;;5.50;66.00;;;;;;4968342;28;20495;-74
2021/01/14 01:38:37;;;;;;;1.40;0.85;;;5.50;65.90;;;;;;4961030;28;20482;-74
2021/01/14 01:41:03;;;;;;;1.67;0.80;;;5.50;65.90;;;;;;4968992;28;20029;-75
2021/01/14 01:43:30;;;;;;;2.38;0.75;;;5.40;65.60;;;;;;4961856;28;20466;-74
2021/01/14 01:45:56;;;;;;;1.58;0.82;;;5.40;65.60;;;;;;4969420;28;20128;-74
2021/01/14 01:48:22;;;;;;;0.88;0.75;;;5.40;65.70;;;;;;4963866;28;20117;-74
2021/01/14 01:50:49;;;;;;;3.25;0.80;;;5.40;65.80;;;;;;4964708;28;20130;-75
2021/01/14 01:53:16;;;;;;;1.45;0.55;;;5.30;65.80;;;;;;4970027;28;20092;-74
2021/01/14 01:55:45;;;;;;;2.10;0.68;;;5.40;65.80;;;;;;4961972;28;20038;-74
2021/01/14 01:58:12;;;;;;;2.72;1.30;;;5.30;65.50;;;;;;4972397;28;20399;-74
2021/01/14 02:00:38;;;;;;;2.53;0.98;;;5.30;65.50;;;;;;4956615;28;20063;-74
2021/01/14 02:03:04;;;;;;;4.35;1.73;;;5.30;65.40;;;;;;4972456;28;20034;-74
2021/01/14 02:05:30;;;;;;;1.65;0.88;;;5.20;65.40;;;;;;4962671;28;20034;-74
2021/01/14 02:08:07;;;;;;;0.98;0.60;;;5.20;65.50;;;;;;4964593;28;20041;-74
2021/01/14 02:10:34;;;;;;;1.75;0.90;;;5.20;66.10;;;;;;4960353;28;20492;-74
2021/01/14 02:13:29;;;;;;;2.03;0.95;;;5.20;65.30;;;;;;4965099;28;20030;-74
2021/01/14 02:15:58;;;;;;;1.85;0.68;;;5.20;65.10;;;;;;4962016;28;20039;-74
2021/01/14 02:18:25;;;;;;;1.70;0.90;;;5.20;65.60;;;;;;4965359;28;20096;-74
2021/01/14 02:20:54;;;;;;;1.98;0.80;;;5.20;65.60;;;;;;4969670;28;20062;-74
2021/01/14 02:23:41;;;;;;;1.00;0.70;;;5.20;65.60;;;;;;4970214;28;20042;-73
2021/01/14 02:26:26;;;;;;;1.50;0.90;;;5.20;65.60;;;;;;4971317;28;20117;-74
2021/01/14 02:28:53;;;;;;;0.98;0.80;;;5.10;65.00;;;;;;4973629;28;20049;-74
2021/01/14 02:31:20;;;;;;;3.45;1.30;;;5.10;65.60;;;;;;4971484;28;20038;-74
2021/01/14 02:33:51;;;;;;;1.83;0.85;;;5.10;65.50;;;;;;4964808;28;20316;-74
2021/01/14 02:36:17;;;;;;;;;;;5.10;65.50;;;;;;4962561;28;20050;-74
2021/01/14 02:38:43;;;;;;;2.45;1.13;;;5.00;64.50;;;;;;4964998;28;20000;-74
2021/01/14 02:41:08;;;;;;;1.98;0.95;;;5.00;65.50;;;;;;4966986;28;20066;-75
2021/01/14 02:43:35;;;;;;;2.13;0.80;;;5.00;65.70;;;;;;4963155;28;20066;-74
2021/01/14 02:46:01;;;;;;;1.05;0.80;;;5.10;65.90;;;;;;4966295;28;20049;-74
2021/01/14 02:48:34;;;;;;;1.17;0.82;;;5.00;66.00;;;;;;4983629;28;20038;-73
2021/01/14 02:51:05;;;;;;;1.20;0.85;;;5.00;65.80;;;;;;4968666;28;20135;-75
2021/01/14 02:53:33;;;;;;;1.70;1.10;;;5.00;66.60;;;;;;4964039;28;20039;-74
2021/01/14 02:56:00;;;;;;;2.70;1.02;;;5.00;66.10;;;;;;4974922;28;20054;-74
2021/01/14 02:58:29;;;;;;;3.33;1.10;;;5.00;66.00;;;;;;4966807;28;20081;-74
2021/01/14 03:00:56;;;;;;;2.25;1.33;;;5.00;66.10;;;;;;4964970;28;20037;-76
2021/01/14 03:03:21;;;;;;;1.77;0.90;;;5.00;66.10;;;;;;4961857;28;20527;-75
2021/01/14 03:05:47;;;;;;;1.45;0.95;;;5.00;66.70;;;;;;4963265;28;20029;-74
2021/01/14 03:08:12;;;;;;;2.42;1.40;;;5.10;66.20;;;;;;4961654;28;20038;-74
2021/01/14 03:10:38;;;;;;;3.85;1.25;;;5.10;66.30;;;;;;4962021;28;20093;-74
2021/01/14 03:13:03;;;;;;;2.15;0.93;;;5.10;66.30;;;;;;4969133;28;20030;-74
2021/01/14 03:15:29;;;;;;;1.67;0.85;;;5.10;66.30;;;;;;4967959;28;20043;-74
2021/01/14 03:17:54;;;;;;;1.75;1.00;;;5.10;66.30;;;;;;4962860;28;20047;-74
2021/01/14 03:20:20;;;;;;;2.55;1.00;;;5.10;66.30;;;;;;4968861;28;20523;-74
2021/01/14 03:22:45;;;;;;;2.53;1.30;;;5.20;66.40;;;;;;4957259;28;20129;-74
2021/01/14 03:25:11;;;;;;;2.78;1.10;;;5.20;66.40;;;;;;4968332;28;20062;-74
2021/01/14 03:27:42;;;;;;;3.08;1.48;;;5.20;66.40;;;;;;4961516;28;20385;-74
2021/01/14 03:30:09;;;;;;;1.25;0.82;;;5.30;66.30;;;;;;4966215;28;20039;-74
2021/01/14 03:32:35;;;;;;;3.60;1.35;;;5.30;66.40;;;;;;4969136;28;20038;-74
2021/01/14 03:35:02;;;;;;;1.75;1.15;;;5.30;66.40;;;;;;4963411;28;20463;-74
2021/01/14 03:37:28;;;;;;;3.30;1.20;;;5.30;66.40;;;;;;4963682;28;20042;-74
2021/01/14 03:39:54;;;;;;;2.35;1.38;;;5.20;66.30;;;;;;4958238;28;20519;-74
2021/01/14 03:42:21;;;;;;;4.43;1.75;;;5.20;66.30;;;;;;4968043;28;20054;-74
2021/01/14 03:44:46;;;;;;;2.95;1.70;;;5.40;66.40;;;;;;4959116;28;20126;-74
2021/01/14 03:47:12;;;;;;;2.75;1.60;;;5.30;66.40;;;;;;4965316;28;20133;-74
2021/01/14 03:49:38;;;;;;;3.60;1.80;;;5.30;66.40;;;;;;4972029;28;20108;-74
2021/01/14 03:52:04;;;;;;;2.80;1.60;;;5.40;66.50;;;;;;4956494;28;20241;-74
2021/01/14 03:54:29;;;;;;;6.32;2.08;;;5.40;66.60;;;;;;4967834;28;20034;-74
2021/01/14 03:56:55;;;;;;;5.85;1.98;;;5.40;66.60;;;;;;4957067;28;20492;-73
2021/01/14 03:59:20;;;;;;;3.08;1.75;;;5.30;66.60;;;;;;4965782;28;20129;-74
2021/01/14 04:01:46;;;;;;;2.70;1.90;;;5.40;66.70;;;;;;4954535;28;20412;-75
2021/01/14 04:04:11;;;;;;;3.92;1.73;;;5.40;66.70;;;;;;4969577;28;20092;-74
2021/01/14 04:06:38;;;;;;;4.43;1.95;;;5.40;66.70;;;;;;4967723;28;20030;-74
2021/01/14 04:09:07;;;;;;;2.25;1.48;;;5.40;66.60;;;;;;4963608;28;20543;-74
2021/01/14 04:11:33;;;;;;;4.65;1.75;;;5.40;66.60;;;;;;4967739;28;20039;-74
2021/01/14 04:14:02;;;;;;;3.35;2.03;;;5.50;66.80;;;;;;4981885;28;20500;-74
2021/01/14 04:16:27;;;;;;;2.65;1.73;;;5.60;66.80;;;;;;4985175;28;20504;-74
2021/01/14 04:18:53;;;;;;;2.65;1.52;;;5.50;66.70;;;;;;4963729;28;20056;-74
2021/01/14 04:21:18;;;;;;;3.28;1.70;;;5.60;66.70;;;;;;4965749;28;20070;-74
2021/01/14 04:23:44;;;;;;;4.68;2.28;;;5.60;66.70;;;;;;4970389;28;20092;-74
2021/01/14 04:26:10;;;;;;;3.95;2.30;;;5.60;66.60;;;;;;4961177;28;20034;-75
2021/01/14 04:28:40;;;;;;;4.45;1.77;;;5.60;66.60;;;;;;4972271;28;20998;-74
2021/01/14 04:31:06;;;;;;;2.95;1.90;;;5.60;66.50;;;;;;4959970;28;20034;-75
2021/01/14 04:33:32;;;;;;;2.50;1.55;;;5.60;66.60;;;;;;4971624;28;20519;-75
2021/01/14 04:35:59;;;;;;;3.65;1.70;;;5.70;66.60;;;;;;4962632;28;20031;-74
2021/01/14 04:38:26;;;;;;;4.60;1.75;;;5.70;66.60;;;;;;4970385;28;20045;-74
2021/01/14 04:41:03;;;;;;;2.28;1.42;;;5.60;66.50;;;;;;4961753;28;20404;-75
2021/01/14 04:43:30;;;;;;;4.10;2.35;;;5.70;66.60;;;;;;4969962;28;20045;-74
2021/01/14 04:46:11;;;;;;;2.90;1.90;;;5.70;66.60;;;;;;4963107;28;20399;-74
2021/01/14 04:48:47;;;;;;;4.25;1.70;;;5.60;66.40;;;;;;4967616;28;20043;-74
2021/01/14 04:51:18;;;;;;;3.13;1.70;;;5.70;66.50;;;;;;4964156;28;20050;-74
2021/01/14 04:53:46;;;;;;;2.72;1.85;;;5.60;66.50;;;;;;4968313;28;20056;-74
2021/01/14 04:56:13;;;;;;;3.10;2.20;;;5.60;66.60;;;;;;4966064;28;20487;-74
2021/01/14 04:58:40;;;;;;;3.53;2.28;;;5.70;66.60;;;;;;4968242;28;20138;-73
2021/01/14 05:01:20;;;;;;;2.92;2.20;;;5.70;66.60;;;;;;4959842;28;20046;-72
2021/01/14 05:03:47;;;;;;;3.65;2.30;;;5.60;66.30;;;;;;4965398;28;20150;-74
2021/01/14 05:06:23;;;;;;;3.75;1.77;;;5.70;66.50;;;;;;4965900;28;20037;-74
2021/01/14 05:08:51;;;;;;;4.35;1.70;;;5.60;66.30;;;;;;4971789;28;20177;-74
2021/01/14 05:11:18;;;;;;;2.97;1.75;;;5.70;66.60;;;;;;4960653;28;20403;-75
2021/01/14 05:13:46;;;;;;;3.50;1.50;;;5.70;66.60;;;;;;4966017;28;20053;-75
2021/01/14 05:16:13;;;;;;;2.90;1.30;;;5.70;66.60;;;;;;4962789;28;20031;-75
2021/01/14 05:18:39;;;;;;;2.92;1.70;;;5.70;66.60;;;;;;4969992;28;20148;-74
2021/01/14 05:21:04;;;;;;;2.58;1.40;;;5.70;66.60;;;;;;4966416;28;20498;-74
2021/01/14 05:23:33;;;;;;;6.18;1.60;;;5.70;66.60;;;;;;4965030;28;20559;-74
2021/01/14 05:25:59;;;;;;;3.45;2.05;;;5.70;66.60;;;;;;4966255;28;20125;-75
2021/01/14 05:28:27;;;;;;;6.68;2.35;;;5.70;66.50;;;;;;4970061;28;20121;-76
2021/01/14 05:30:53;;;;;;;3.25;1.83;;;5.70;66.50;;;;;;4971394;28;20512;-74
2021/01/14 05:33:23;;;;;;;2.72;1.50;;;5.70;66.50;;;;;;4961213;28;20110;-75
2021/01/14 05:35:53;;;;;;;4.15;2.20;;;5.70;66.50;;;;;;4968229;28;20034;-75
2021/01/14 05:38:30;;;;;;;3.35;2.15;;;5.70;66.50;;;;;;4982860;28;20039;-75
2021/01/14 05:41:21;;;;;;;3.88;2.40;;;5.70;66.40;;;;;;4984575;28;20593;-75
2021/01/14 05:43:50;;;;;;;2.92;2.08;;;5.70;66.40;;;;;;4983916;28;20047;-75
2021/01/14 05:46:24;;;;;;;2.72;1.60;;;5.60;66.50;;;;;;4982900;28;20448;-75
2021/01/14 05:48:54;;;;;;;3.85;2.20;;;5.70;66.50;;;;;;4984148;28;20039;-75
2021/01/14 05:51:27;;;;;;;3.22;1.92;;;5.60;66.50;;;;;;4985557;28;20039;-75
2021/01/14 05:54:02;;;;;;;4.57;2.55;;;5.70;66.60;;;;;;4985147;28;20530;-75
2021/01/14 05:56:48;;;;;;;2.72;2.00;;;5.60;66.40;;;;;;4986603;28;20046;-74
2021/01/14 05:59:18;;;;;;;3.10;1.85;;;5.60;66.30;;;;;;4988177;28;20030;-75
2021/01/14 06:02:00;;;;;;;1.95;1.60;;;5.60;66.50;;;;;;4977896;28;20416;-75
2021/01/14 06:04:27;;;;;;;2.50;1.73;;;5.60;66.40;;;;;;4984111;28;20114;-75
2021/01/14 06:06:54;;;;;;;3.33;1.40;;;5.60;66.60;;;;;;4983489;28;20022;-74
2021/01/14 06:09:22;;;;;;;2.63;1.75;;;5.60;66.60;;;;;;4985929;28;20130;-75
2021/01/14 06:11:49;;;;;;;3.78;2.25;;;5.60;66.60;;;;;;4985555;28;20054;-75
2021/01/14 06:14:32;;;;;;;2.92;1.77;;;5.50;66.50;;;;;;4989072;28;20038;-74
2021/01/14 06:17:02;;;;;;;2.38;1.42;;;5.40;66.40;;;;;;4982720;28;20652;-75
2021/01/14 06:19:28;;;;;;;;;;;5.50;66.60;;;;;;4977804;28;20085;-76
2021/01/14 06:21:55;;;;;;;2.28;1.35;;;5.50;66.20;;;;;;4985187;28;19910;-75
2021/01/14 06:24:37;;;;;;;2.47;1.80;;;5.50;66.50;;;;;;4987396;28;20033;-75
2021/01/14 06:27:05;;;;;;;2.92;1.73;;;5.50;66.30;;;;;;4982216;28;20030;-74
2021/01/14 06:29:34;;;;;;;3.30;1.98;;;5.50;66.60;;;;;;4988657;28;20081;-73
2021/01/14 06:32:07;;;;;;;1.88;1.50;;;5.50;66.60;;;;;;4984864;28;20022;-74
2021/01/14 06:34:34;;;;;;;3.05;1.40;;;5.50;66.60;;;;;;4981526;28;20029;-75
2021/01/14 06:37:10;;;;;;;2.45;1.52;;;5.50;66.70;;;;;;4982936;28;20089;-74
2021/01/14 06:39:41;;;;;;;3.80;1.80;;;5.50;66.70;;;;;;4988195;28;20113;-74
2021/01/14 06:42:20;;;;;;;3.80;2.03;;;5.50;66.70;;;;;;4979004;28;20101;-74
2021/01/14 06:45:11;;;;;;;2.03;1.42;;;5.40;66.60;;;;;;4981279;28;20038;-74
2021/01/14 06:47:46;;;;;;;1.95;1.58;;;5.50;66.70;;;;;;4974993;28;20034;-75
2021/01/14 06:50:24;;;;;;;2.10;1.42;;;5.40;66.70;;;;;;4982416;28;20030;-75
2021/01/14 06:52:50;;;;;;;2.47;1.60;;;5.40;66.80;;;;;;4981242;28;20026;-74
2021/01/14 06:55:21;;;;;;;3.40;1.60;;;5.40;66.80;;;;;;4984986;28;20022;-75
2021/01/14 06:58:08;;;;;;;2.40;1.55;;;5.40;67.30;;;;;;4982014;28;20145;-75
2021/01/14 07:00:39;;;;;;;1.88;1.42;;;5.40;66.60;;;;;;5076934;23;20120;-72
2021/01/14 07:03:17;;;;;;;2.38;1.60;;;5.50;66.80;;;;;;4997173;28;20125;-71
2021/01/14 07:06:01;;;;;;;2.38;1.55;;;5.40;66.70;;;;;;5004471;28;20029;-72
2021/01/14 07:08:32;;;;;;;2.40;1.60;;;5.50;66.60;;;;;;4995741;28;20034;-72
2021/01/14 07:11:16;;;;;;;9.65;2.10;;;5.50;66.80;;;;;;4999759;28;20034;-72
2021/01/14 07:13:47;;;;;;;2.58;1.70;;;5.40;66.60;;;;;;5019101;28;20026;-71
2021/01/14 07:16:14;;;;;;;3.85;1.73;;;5.50;66.70;;;;;;5019677;28;20038;-71
2021/01/14 07:18:41;;;;;;;2.45;1.42;;;5.50;66.70;;;;;;5018976;28;20101;-74
2021/01/14 07:21:15;;;;;;;2.78;1.80;;;5.50;66.80;;;;;;5020088;28;20026;-74
2021/01/14 07:24:04;;;;;;;1.98;1.63;;;5.40;66.60;;;;;;5007699;28;20165;-74
2021/01/14 07:26:31;;;;;;;1.90;1.40;;;5.50;66.70;;;;;;5013258;28;20030;-74
2021/01/14 07:29:02;;;;;;;2.33;1.33;;;5.40;66.80;;;;;;5013541;28;20112;-74
2021/01/14 07:31:28;;;;;;;2.78;1.33;;;5.40;66.70;;;;;;5011903;28;20617;-74
2021/01/14 07:33:54;;;;;;;3.42;2.10;;;5.50;66.80;;;;;;5013856;28;20112;-74
2021/01/14 07:36:26;;;;;;;2.40;1.83;;;5.50;66.90;;;;;;5015423;28;20033;-74
2021/01/14 07:38:57;;;;;;;3.25;2.20;;;5.50;66.80;;;;;;5017515;28;20034;-74
2021/01/14 07:41:23;;;;;;;2.78;1.92;;;5.50;66.80;;;;;;5020189;28;20046;-74
2021/01/14 07:43:50;;;;;;;3.33;1.38;;;5.50;66.90;;;;;;5013946;28;20041;-74
2021/01/14 07:46:24;;;;;;;2.58;1.42;;;5.40;66.80;;;;;;5015844;28;20044;-74
2021/01/14 07:48:52;;;;;;;2.45;1.60;;;5.50;66.80;;;;;;5022038;28;20037;-74
2021/01/14 07:51:18;;;;;;;2.20;1.42;;;5.50;66.80;;;;;;5018722;28;20038;-74
2021/01/14 07:54:03;;;;;;;2.92;1.42;;;5.50;66.80;;;;;;5024251;28;20075;-74
2021/01/14 07:56:31;;;;;;;1.60;1.30;;;5.50;66.60;;;;;;5018764;28;20036;-74
2021/01/14 07:58:58;;;;;;;3.08;1.58;;;5.50;66.80;;;;;;5023932;28;20080;-74
2021/01/14 08:01:24;;;;;;;1.80;1.50;;;5.50;66.80;;;;;;5019776;28;20046;-73
2021/01/14 08:03:50;;;;;;;1.83;1.13;;;5.50;66.70;;;;;;5020640;28;20080;-74
2021/01/14 08:06:22;;;;;;;1.73;1.35;;;5.50;66.70;;;;;;5016640;28;20030;-74
2021/01/14 08:08:59;;;;;;;2.47;1.13;;;5.50;66.70;;;;;;5017428;28;20034;-74
2021/01/14 08:11:26;;;;;;;2.08;1.20;;;5.50;66.60;;;;;;5019972;28;20084;-74
2021/01/14 08:14:02;;;;;;;2.00;1.60;;;5.50;67.30;;;;;;5018976;28;20112;-74
2021/01/14 08:16:50;;;;;;;1.83;1.35;;;5.50;66.60;;;;;;5020762;28;20116;-74
2021/01/14 08:19:28;;;;;;;3.13;1.90;;;5.50;66.50;;;;;;5013233;28;20037;-74
2021/01/14 08:22:00;;;;;;;4.15;1.50;;;5.50;66.60;;;;;;5016665;28;20029;-75
2021/01/14 08:24:34;;;;;;;2.47;1.17;;;5.60;66.70;;;;;;5014967;28;20033;-75
2021/01/14 08:27:02;;;;;;;1.92;1.48;;;5.60;66.70;;;;;;5018577;28;20033;-75
2021/01/14 08:29:40;;;;;;;1.80;1.05;;;5.50;66.70;;;;;;5016512;28;20064;-75
2021/01/14 08:32:45;;;;;;;1.42;1.23;;;5.50;66.70;;;;;;5018551;28;20045;-75
2021/01/14 08:35:16;;;;;;;1.65;1.10;;;5.50;66.50;;;;;;5018530;28;20500;-75
2021/01/14 08:37:52;;;;;;;2.25;1.48;;;5.60;66.80;;;;;;5019283;28;20042;-75
2021/01/14 08:40:24;;;;;;;2.35;1.55;;;5.50;66.70;;;;;;5000936;28;20027;-75
2021/01/14 08:43:10;;;;;;;1.50;1.20;;;5.50;66.80;;;;;;5000006;28;20038;-74
2021/01/14 08:45:45;;;;;;;1.70;1.20;;;5.60;66.70;;;;;;4995630;28;20065;-75
2021/01/14 08:48:30;;;;;;;2.65;1.20;;;5.60;66.70;;;;;;5008625;28;20048;-75
2021/01/14 08:50:55;;;;;;;1.23;1.05;;;5.60;66.60;;;;;;5019176;28;20069;-75
2021/01/14 08:53:35;;;;;;;1.90;1.20;;;5.60;66.80;;;;;;5018420;28;20037;-75
2021/01/14 08:56:02;;;;;;;1.60;1.23;;;5.70;66.70;;;;;;5015970;28;20049;-75
2021/01/14 08:58:43;;;;;;;1.40;1.20;;;5.60;66.80;;;;;;5023579;28;20124;-75
2021/01/14 09:01:32;;;;;;;2.13;1.25;;;5.60;66.60;;;;;;5019093;28;20041;-75
2021/01/14 09:03:58;;;;;;;1.65;1.20;;;5.70;66.60;;;;;;5027462;28;20061;-75
2021/01/14 09:06:37;;;;;;;1.83;1.23;;;5.70;66.80;;;;;;5017798;28;20033;-75
2021/01/14 09:09:16;;;;;;;2.10;1.27;;;5.70;66.70;;;;;;5018525;28;20080;-74
2021/01/14 09:11:42;;;;;;;4.35;1.65;;;5.70;66.80;;;;;;5020475;28;20059;-75
2021/01/14 09:14:10;;;;;;;1.52;1.10;;;5.70;66.70;;;;;;5021846;28;20038;-74
2021/01/14 09:16:37;;;;;;;1.88;1.23;;;5.70;66.80;;;;;;5019132;28;20057;-74
2021/01/14 09:19:20;;;;;;;2.75;1.20;;;5.70;66.80;;;;;;5021385;28;20518;-75
2021/01/14 09:21:46;;;;;;;1.52;1.25;;;5.70;66.60;;;;;;5019344;28;20135;-75
2021/01/14 09:24:14;;;;;;;1.83;1.35;;;5.80;66.90;;;;;;5022937;28;20042;-75
2021/01/14 09:26:42;;;;;;;1.65;1.40;;;5.80;66.80;;;;;;5018758;28;20053;-75
2021/01/14 09:29:13;;;;;;;3.97;1.75;;;5.80;66.90;;;;;;5016319;28;20559;-74
2021/01/14 09:31:42;;;;;;;1.48;1.23;;;5.80;66.90;;;;;;5016317;28;20038;-76
2021/01/14 09:34:08;;;;;;;3.08;2.03;;;5.80;66.90;;;;;;5016050;28;20392;-75
2021/01/14 09:36:34;;;;;;;2.25;1.42;;;5.80;66.80;;;;;;5021988;28;20040;-74
2021/01/14 09:39:02;;;;;;;2.08;1.50;;;5.80;66.70;;;;;;5019279;28;20351;-75
2021/01/14 09:41:35;;;;;;;2.65;1.40;;;5.80;66.70;;;;;;5024128;28;20047;-75
2021/01/14 09:44:06;;;;;;;2.25;1.58;;;5.90;66.50;;;;;;5017430;28;20037;-74
2021/01/14 09:46:34;;;;;;;;;;;5.80;66.60;;;;;;5022036;28;20502;-74
2021/01/14 09:49:09;;;;;;;1.55;1.20;;;5.90;65.90;;;;;;5018235;28;19921;-74
2021/01/14 09:51:45;;;;;;;3.45;1.50;;;5.90;66.30;;;;;;5025321;28;20108;-73
2021/01/14 09:54:11;;;;;;;1.65;1.27;;;6.00;66.50;;;;;;5022891;28;20037;-73
2021/01/14 09:56:43;;;;;;;2.38;1.63;;;5.90;66.50;;;;;;5024214;28;20415;-73
2021/01/14 09:59:15;;;;;;;1.67;1.30;;;5.90;66.40;;;;;;5026938;28;20120;-73
2021/01/14 10:01:53;;;;;;;1.95;1.38;;;5.90;66.50;;;;;;5023275;28;20527;-73
2021/01/14 10:04:22;;;;;;;1.77;1.30;;;5.90;66.40;;;;;;5024023;28;20137;-74
2021/01/14 10:06:55;;;;;;;2.63;1.45;;;5.90;66.60;;;;;;5019307;28;20034;-73
2021/01/14 10:09:21;;;;;;;2.42;1.70;;;5.90;66.50;;;;;;5017519;28;20084;-73
2021/01/14 10:11:47;;;;;;;1.60;1.13;;;6.00;66.60;;;;;;5019284;28;20033;-74
2021/01/14 10:14:18;;;;;;;2.65;1.60;;;6.00;66.60;;;;;;5016822;28;20532;-74
2021/01/14 10:16:44;;;;;;;1.85;1.40;;;6.00;66.50;;;;;;5017197;28;20076;-74
2021/01/14 10:19:15;;;;;;;2.05;1.40;;;6.00;66.60;;;;;;5013047;28;20112;-73
2021/01/14 10:21:41;;;;;;;2.55;1.27;;;6.00;66.60;;;;;;5022990;28;20026;-73
2021/01/14 10:24:31;;;;;;;1.98;1.30;;;6.00;66.60;;;;;;5016601;28;20072;-74
2021/01/14 10:27:14;;;;;;;0.98;0.90;;;6.00;66.50;;;;;;5021261;28;20825;-74
2021/01/14 10:29:40;;;;;;;1.88;1.58;;;6.00;66.40;;;;;;5015190;28;20041;-74
2021/01/14 10:32:08;;;;;;;4.05;1.60;;;6.00;66.60;;;;;;5021370;28;20087;-74
2021/01/14 10:34:40;;;;;;;2.03;1.08;;;6.00;66.60;;;;;;5014010;28;20693;-74
2021/01/14 10:37:15;;;;;;;1.60;1.10;;;6.10;66.60;;;;;;4998413;28;20277;-74
2021/01/14 10:39:41;;;;;;;2.22;1.38;;;6.10;66.80;;;;;;5018897;28;20060;-74
2021/01/14 10:42:25;;;;;;;3.45;1.60;;;6.10;66.80;;;;;;5018447;28;20097;-74
2021/01/14 10:45:00;;;;;;;3.42;1.73;;;6.20;66.40;;;;;;5022059;28;20032;-74
2021/01/14 10:47:26;;;;;;;2.00;1.40;;;6.20;66.40;;;;;;5019082;28;20407;-71
2021/01/14 10:49:51;;;;;;;2.05;1.50;;;6.20;66.60;;;;;;5015078;28;20030;-72
2021/01/14 10:52:17;;;;;;;1.75;1.35;;;6.30;66.70;;;;;;5014776;28;20059;-72
2021/01/14 10:54:57;;;;;;;1.67;1.25;;;6.30;66.70;;;;;;5020899;28;20427;-71
2021/01/14 10:57:22;;;;;;;2.35;1.33;;;6.30;66.50;;;;;;5014662;28;20379;-72
2021/01/14 10:59:48;;;;;;;3.35;1.25;;;6.30;66.80;;;;;;5016345;28;20037;-72
2021/01/14 11:02:13;;;;;;;5.38;1.73;;;6.40;66.80;;;;;;5014709;28;20034;-72
2021/01/14 11:04:53;;;;;;;3.03;1.50;;;6.30;67.30;;;;;;5017136;28;20514;-73
2021/01/14 11:07:19;;;;;;;2.58;1.67;;;6.40;66.40;;;;;;5019003;28;20034;-72
2021/01/14 11:09:51;;;;;;;2.40;1.65;;;6.40;66.60;;;;;;5019218;28;20024;-72
2021/01/14 11:12:18;;;;;;;2.95;1.27;;;6.40;66.30;;;;;;5013665;28;20398;-72
2021/01/14 11:14:44;;;;;;;1.52;1.40;;;6.50;66.40;;;;;;5017326;28;20032;-72
2021/01/14 11:17:13;;;;;;;1.65;1.40;;;6.50;66.40;;;;;;5016671;28;20046;-71
2021/01/14 11:19:38;;;;;;;1.17;0.95;;;6.50;66.50;;;;;;5017752;28;20052;-71
2021/01/14 11:22:04;;;;;;;1.90;1.40;;;6.50;66.50;;;;;;5017087;28;20538;-72
2021/01/14 11:24:29;;;;;;;3.15;1.30;;;6.50;66.50;;;;;;5018818;28;20034;-72
2021/01/14 11:26:55;;;;;;;2.03;1.60;;;6.60;66.60;;;;;;5016354;28;20022;-72
2021/01/14 11:29:20;;;;;;;2.03;1.25;;;6.50;66.60;;;;;;5019259;28;20489;-72
2021/01/14 11:31:46;;;;;;;2.38;1.30;;;6.50;66.60;;;;;;5015969;28;20045;-72
2021/01/14 11:34:12;;;;;;;2.47;1.80;;;6.60;66.70;;;;;;5019073;28;20551;-74
2021/01/14 11:36:38;;;;;;;1.85;1.35;;;6.60;66.70;;;;;;5018273;28;20614;-73
2021/01/14 11:39:04;;;;;;;2.75;1.83;;;6.60;66.70;;;;;;5018623;28;20036;-75
2021/01/14 11:41:29;;;;;;;2.13;1.50;;;6.70;66.60;;;;;;5016094;28;20179;-72
2021/01/14 11:43:55;;;;;;;4.32;1.50;;;6.60;66.50;;;;;;5020158;28;20036;-75
2021/01/14 11:46:24;;;;;;;2.00;1.73;;;6.70;66.40;;;;;;5024057;28;20033;-73
2021/01/14 11:48:50;;;;;;;1.60;1.40;;;6.90;66.60;;;;;;5013760;28;20921;-73
2021/01/14 11:51:16;;;;;;;1.55;1.35;;;6.70;66.40;;;;;;5022399;28;20060;-74
2021/01/14 11:53:41;;;;;;;2.28;1.23;;;6.70;66.50;;;;;;5022326;28;20072;-73
2021/01/14 11:56:07;;;;;;;2.00;1.50;;;6.80;66.50;;;;;;5021207;28;20129;-73
2021/01/14 11:58:33;;;;;;;2.25;1.55;;;6.70;66.60;;;;;;5021046;28;20037;-75
2021/01/14 12:00:58;;;;;;;2.53;1.50;;;6.80;66.60;;;;;;5017344;28;20049;-77
2021/01/14 12:03:23;;;;;;;2.42;1.75;;;6.80;66.50;;;;;;5012950;28;20037;-76
2021/01/14 12:05:49;;;;;;;2.08;1.63;;;6.80;66.40;;;;;;5016686;28;20040;-75
2021/01/14 12:08:15;;;;;;;2.35;1.30;;;6.90;66.50;;;;;;5017712;28;20052;-77
2021/01/14 12:10:40;;;;;;;1.92;1.33;;;6.90;66.60;;;;;;5015570;28;20029;-76
2021/01/14 12:13:06;;;;;;;1.70;1.60;;;6.90;66.60;;;;;;5015277;28;20041;-76
2021/01/14 12:15:31;;;;;;;1.52;1.40;;;6.90;66.60;;;;;;5011966;28;20030;-76
2021/01/14 12:17:56;;;;;;;1.90;1.38;;;6.90;66.60;;;;;;5019766;28;20537;-75
2021/01/14 12:20:22;;;;;;;2.05;1.50;;;7.00;66.60;;;;;;5014083;28;20036;-75
2021/01/14 12:22:47;;;;;;;2.17;1.52;;;7.00;66.60;;;;;;5012864;28;20470;-74
2021/01/14 12:25:13;;;;;;;1.90;1.27;;;7.00;66.50;;;;;;5014577;28;20041;-74
2021/01/14 12:27:40;;;;;;;2.28;1.40;;;7.10;66.60;;;;;;5026471;28;20025;-73
2021/01/14 12:30:07;;;;;;;2.00;1.38;;;7.00;66.50;;;;;;5024854;28;20045;-74
2021/01/14 12:32:33;;;;;;;1.98;1.30;;;7.10;66.60;;;;;;5022699;28;20994;-74
2021/01/14 12:34:59;;;;;;;2.15;1.80;;;7.20;66.60;;;;;;5022686;28;20125;-74
2021/01/14 12:37:30;;;;;;;2.03;1.73;;;7.20;66.60;;;;;;5019837;28;20037;-74
2021/01/14 12:39:55;;;;;;;;;;;7.20;66.50;;;;;;5018140;28;20080;-74
2021/01/14 12:42:21;;;;;;;2.35;1.15;;;7.20;65.50;;;;;;5016845;28;20551;-74
2021/01/14 12:44:46;;;;;;;1.63;1.15;;;7.30;66.20;;;;;;5020355;28;20565;-74
2021/01/14 12:47:11;;;;;;;2.15;1.40;;;7.30;66.10;;;;;;5017489;28;20038;-73
2021/01/14 12:49:37;;;;;;;1.30;1.20;;;7.30;66.10;;;;;;5023334;28;20032;-73
2021/01/14 12:52:03;;;;;;;2.13;1.23;;;7.20;65.90;;;;;;5024029;28;20061;-73
2021/01/14 12:54:28;;;;;;;2.05;1.50;;;7.20;65.80;;;;;;5019924;28;20049;-74
2021/01/14 12:56:53;;;;;;;1.90;1.20;;;7.20;65.70;;;;;;5020282;28;20149;-74
2021/01/14 12:59:19;;;;;;;2.35;1.35;;;7.30;65.80;;;;;;5002455;28;20036;-74
2021/01/14 13:01:44;;;;;;;3.42;2.47;;;7.30;65.70;;;;;;5020586;28;20119;-74
2021/01/14 13:04:11;;;;;;;5.55;4.00;;;7.20;65.50;;;;;;5016460;28;20049;-78
2021/01/14 13:06:38;;;;;;;5.28;3.78;;;7.30;65.50;;;;;;5018128;28;20499;-74
2021/01/14 13:09:06;;;;;;;3.80;3.25;;;7.20;65.60;;;;;;5019703;28;20044;-75
2021/01/14 13:11:32;;;;;;;4.55;2.75;;;7.20;65.50;;;;;;5017591;28;20025;-75